sensor_id;sensor_type;location;lat;lon;timestamp;P1;durP1;ratioP1;P2;durP2;ratioP2
20713;SDS011;10518;50.742;4.226;2023-04-24T00:01:47;4.97;;;3.40;;
20713;SDS011;10518;50.742;4.226;2023-04-24T00:04:12;7.67;;;4.17;;
20713;SDS011;10518;50.742;4.226;2023-04-24T00:06:41;9.03;;;3.97;;
20713;SDS011;10518;50.742;4.226;2023-04-24T00:09:07;6.57;;;2.87;;
20713;SDS011;10518;50.742;4.226;2023-04-24T00:11:36;10.70;;;3.30;;
20713;SDS011;10518;50.742;4.226;2023-04-24T00:14:02;5.97;;;3.10;;
20713;SDS011;10518;50.742;4.226;2023-04-24T00:16:28;7.00;;;3.27;;
20713;SDS011;10518;50.742;4.226;2023-04-24T00:18:54;11.57;;;3.90;;
20713;SDS011;10518;50.742;4.226;2023-04-24T00:21:19;5.77;;;3.27;;
20713;SDS011;10518;50.742;4.226;2023-04-24T00:23:46;5.17;;;2.93;;
20713;SDS011;10518;50.742;4.226;2023-04-24T00:26:12;8.63;;;3.30;;
20713;SDS011;10518;50.742;4.226;2023-04-24T00:28:38;6.23;;;3.27;;
20713;SDS011;10518;50.742;4.226;2023-04-24T00:31:04;7.60;;;4.33;;
20713;SDS011;10518;50.742;4.226;2023-04-24T00:33:29;8.57;;;4.13;;
20713;SDS011;10518;50.742;4.226;2023-04-24T00:35:55;15.87;;;4.20;;
20713;SDS011;10518;50.742;4.226;2023-04-24T00:38:21;13.07;;;3.80;;
20713;SDS011;10518;50.742;4.226;2023-04-24T00:40:47;8.27;;;3.17;;
20713;SDS011;10518;50.742;4.226;2023-04-24T00:43:14;6.80;;;3.73;;
20713;SDS011;10518;50.742;4.226;2023-04-24T00:45:40;8.47;;;3.23;;
20713;SDS011;10518;50.742;4.226;2023-04-24T00:48:06;6.03;;;3.57;;
20713;SDS011;10518;50.742;4.226;2023-04-24T00:50:32;11.07;;;3.67;;
20713;SDS011;10518;50.742;4.226;2023-04-24T00:53:00;10.43;;;3.60;;
20713;SDS011;10518;50.742;4.226;2023-04-24T00:55:26;5.60;;;3.43;;
20713;SDS011;10518;50.742;4.226;2023-04-24T00:57:51;6.33;;;3.43;;
20713;SDS011;10518;50.742;4.226;2023-04-24T01:00:18;7.63;;;3.47;;
20713;SDS011;10518;50.742;4.226;2023-04-24T01:02:44;7.60;;;3.23;;
20713;SDS011;10518;50.742;4.226;2023-04-24T01:05:11;6.40;;;3.27;;
20713;SDS011;10518;50.742;4.226;2023-04-24T01:07:39;7.77;;;3.30;;
20713;SDS011;10518;50.742;4.226;2023-04-24T01:10:09;9.23;;;3.23;;
20713;SDS011;10518;50.742;4.226;2023-04-24T01:12:35;4.80;;;3.00;;
20713;SDS011;10518;50.742;4.226;2023-04-24T01:15:01;7.07;;;3.23;;
20713;SDS011;10518;50.742;4.226;2023-04-24T01:17:28;7.97;;;3.00;;
20713;SDS011;10518;50.742;4.226;2023-04-24T01:19:54;6.77;;;3.43;;
20713;SDS011;10518;50.742;4.226;2023-04-24T01:22:21;7.33;;;3.37;;
20713;SDS011;10518;50.742;4.226;2023-04-24T01:24:47;7.60;;;3.80;;
20713;SDS011;10518;50.742;4.226;2023-04-24T01:27:13;10.93;;;3.13;;
20713;SDS011;10518;50.742;4.226;2023-04-24T01:29:39;8.27;;;3.43;;
20713;SDS011;10518;50.742;4.226;2023-04-24T01:32:06;11.63;;;4.20;;
20713;SDS011;10518;50.742;4.226;2023-04-24T01:34:32;9.77;;;3.77;;
20713;SDS011;10518;50.742;4.226;2023-04-24T01:36:57;7.67;;;4.33;;
20713;SDS011;10518;50.742;4.226;2023-04-24T01:39:23;8.73;;;3.93;;
20713;SDS011;10518;50.742;4.226;2023-04-24T01:41:50;11.03;;;4.30;;
20713;SDS011;10518;50.742;4.226;2023-04-24T01:44:17;7.30;;;4.17;;
20713;SDS011;10518;50.742;4.226;2023-04-24T01:46:43;9.73;;;4.40;;
20713;SDS011;10518;50.742;4.226;2023-04-24T01:49:09;5.93;;;3.47;;
20713;SDS011;10518;50.742;4.226;2023-04-24T01:51:35;9.33;;;3.60;;
20713;SDS011;10518;50.742;4.226;2023-04-24T01:54:00;8.37;;;4.00;;
20713;SDS011;10518;50.742;4.226;2023-04-24T01:56:26;8.97;;;4.07;;
20713;SDS011;10518;50.742;4.226;2023-04-24T01:58:55;6.20;;;3.60;;
20713;SDS011;10518;50.742;4.226;2023-04-24T02:01:23;9.53;;;3.50;;
20713;SDS011;10518;50.742;4.226;2023-04-24T02:03:49;6.83;;;4.07;;
20713;SDS011;10518;50.742;4.226;2023-04-24T02:06:15;6.00;;;3.53;;
20713;SDS011;10518;50.742;4.226;2023-04-24T02:08:40;5.87;;;3.30;;
20713;SDS011;10518;50.742;4.226;2023-04-24T02:11:06;7.30;;;4.23;;
20713;SDS011;10518;50.742;4.226;2023-04-24T02:13:34;7.73;;;3.90;;
20713;SDS011;10518;50.742;4.226;2023-04-24T02:15:59;11.17;;;3.43;;
20713;SDS011;10518;50.742;4.226;2023-04-24T02:18:25;7.60;;;3.80;;
20713;SDS011;10518;50.742;4.226;2023-04-24T02:20:51;7.90;;;3.47;;
20713;SDS011;10518;50.742;4.226;2023-04-24T02:23:16;6.20;;;2.90;;
20713;SDS011;10518;50.742;4.226;2023-04-24T02:25:42;11.57;;;4.17;;
20713;SDS011;10518;50.742;4.226;2023-04-24T02:28:07;8.33;;;3.10;;
20713;SDS011;10518;50.742;4.226;2023-04-24T02:30:33;7.47;;;3.47;;
20713;SDS011;10518;50.742;4.226;2023-04-24T02:32:59;7.03;;;3.33;;
20713;SDS011;10518;50.742;4.226;2023-04-24T02:35:24;5.57;;;3.10;;
20713;SDS011;10518;50.742;4.226;2023-04-24T02:37:50;5.10;;;2.90;;
20713;SDS011;10518;50.742;4.226;2023-04-24T02:40:16;4.50;;;2.83;;
20713;SDS011;10518;50.742;4.226;2023-04-24T02:42:41;6.50;;;2.83;;
20713;SDS011;10518;50.742;4.226;2023-04-24T02:45:07;5.87;;;3.13;;
20713;SDS011;10518;50.742;4.226;2023-04-24T02:47:33;6.30;;;3.97;;
20713;SDS011;10518;50.742;4.226;2023-04-24T02:49:58;3.07;;;1.97;;
20713;SDS011;10518;50.742;4.226;2023-04-24T02:52:24;5.93;;;2.93;;
20713;SDS011;10518;50.742;4.226;2023-04-24T02:54:49;7.83;;;2.57;;
20713;SDS011;10518;50.742;4.226;2023-04-24T02:57:15;8.43;;;2.97;;
20713;SDS011;10518;50.742;4.226;2023-04-24T02:59:41;5.53;;;3.00;;
20713;SDS011;10518;50.742;4.226;2023-04-24T03:02:06;3.93;;;2.43;;
20713;SDS011;10518;50.742;4.226;2023-04-24T03:04:32;4.87;;;2.53;;
20713;SDS011;10518;50.742;4.226;2023-04-24T03:06:57;5.63;;;3.03;;
20713;SDS011;10518;50.742;4.226;2023-04-24T03:09:23;5.03;;;3.23;;
20713;SDS011;10518;50.742;4.226;2023-04-24T03:11:49;6.30;;;3.00;;
20713;SDS011;10518;50.742;4.226;2023-04-24T03:14:15;4.97;;;3.17;;
20713;SDS011;10518;50.742;4.226;2023-04-24T03:16:41;3.93;;;2.27;;
20713;SDS011;10518;50.742;4.226;2023-04-24T03:19:07;3.70;;;3.10;;
20713;SDS011;10518;50.742;4.226;2023-04-24T03:21:32;7.30;;;3.37;;
20713;SDS011;10518;50.742;4.226;2023-04-24T03:23:58;4.80;;;2.97;;
20713;SDS011;10518;50.742;4.226;2023-04-24T03:26:24;7.70;;;3.30;;
20713;SDS011;10518;50.742;4.226;2023-04-24T03:28:49;6.60;;;2.67;;
20713;SDS011;10518;50.742;4.226;2023-04-24T03:31:15;8.17;;;3.33;;
20713;SDS011;10518;50.742;4.226;2023-04-24T03:33:41;8.77;;;3.10;;
20713;SDS011;10518;50.742;4.226;2023-04-24T03:36:07;8.73;;;3.43;;
20713;SDS011;10518;50.742;4.226;2023-04-24T03:38:32;3.97;;;2.30;;
20713;SDS011;10518;50.742;4.226;2023-04-24T03:40:58;3.60;;;2.23;;
20713;SDS011;10518;50.742;4.226;2023-04-24T03:43:24;7.27;;;3.23;;
20713;SDS011;10518;50.742;4.226;2023-04-24T03:45:49;3.97;;;2.47;;
20713;SDS011;10518;50.742;4.226;2023-04-24T03:48:15;3.73;;;2.63;;
20713;SDS011;10518;50.742;4.226;2023-04-24T03:50:41;2.87;;;2.00;;
20713;SDS011;10518;50.742;4.226;2023-04-24T03:53:07;4.87;;;3.03;;
20713;SDS011;10518;50.742;4.226;2023-04-24T03:55:33;4.73;;;3.00;;
20713;SDS011;10518;50.742;4.226;2023-04-24T03:57:58;6.63;;;2.47;;
20713;SDS011;10518;50.742;4.226;2023-04-24T04:00:24;6.80;;;2.70;;
20713;SDS011;10518;50.742;4.226;2023-04-24T04:02:50;7.83;;;3.30;;
20713;SDS011;10518;50.742;4.226;2023-04-24T04:05:16;5.47;;;2.90;;
20713;SDS011;10518;50.742;4.226;2023-04-24T04:07:42;3.03;;;2.20;;
20713;SDS011;10518;50.742;4.226;2023-04-24T04:10:07;4.00;;;2.70;;
20713;SDS011;10518;50.742;4.226;2023-04-24T04:12:33;4.77;;;2.23;;
20713;SDS011;10518;50.742;4.226;2023-04-24T04:14:59;3.13;;;2.23;;
20713;SDS011;10518;50.742;4.226;2023-04-24T04:17:25;4.63;;;2.30;;
20713;SDS011;10518;50.742;4.226;2023-04-24T04:19:50;2.30;;;1.93;;
20713;SDS011;10518;50.742;4.226;2023-04-24T04:22:16;3.17;;;2.47;;
20713;SDS011;10518;50.742;4.226;2023-04-24T04:24:42;4.17;;;2.53;;
20713;SDS011;10518;50.742;4.226;2023-04-24T04:27:08;2.00;;;1.80;;
20713;SDS011;10518;50.742;4.226;2023-04-24T04:29:33;5.17;;;2.03;;
20713;SDS011;10518;50.742;4.226;2023-04-24T04:32:00;2.40;;;1.90;;
20713;SDS011;10518;50.742;4.226;2023-04-24T04:34:27;4.07;;;2.37;;
20713;SDS011;10518;50.742;4.226;2023-04-24T04:36:53;6.70;;;2.50;;
20713;SDS011;10518;50.742;4.226;2023-04-24T04:39:18;3.20;;;2.03;;
20713;SDS011;10518;50.742;4.226;2023-04-24T04:41:44;4.10;;;2.77;;
20713;SDS011;10518;50.742;4.226;2023-04-24T04:44:13;3.73;;;2.10;;
20713;SDS011;10518;50.742;4.226;2023-04-24T04:46:39;2.90;;;2.27;;
20713;SDS011;10518;50.742;4.226;2023-04-24T04:49:06;4.57;;;2.93;;
20713;SDS011;10518;50.742;4.226;2023-04-24T04:51:33;5.97;;;2.60;;
20713;SDS011;10518;50.742;4.226;2023-04-24T04:53:59;5.93;;;3.37;;
20713;SDS011;10518;50.742;4.226;2023-04-24T04:56:25;5.53;;;3.43;;
20713;SDS011;10518;50.742;4.226;2023-04-24T04:58:51;5.03;;;3.73;;
20713;SDS011;10518;50.742;4.226;2023-04-24T05:01:16;10.10;;;3.83;;
20713;SDS011;10518;50.742;4.226;2023-04-24T05:03:42;5.63;;;3.40;;
20713;SDS011;10518;50.742;4.226;2023-04-24T05:06:08;7.77;;;3.80;;
20713;SDS011;10518;50.742;4.226;2023-04-24T05:08:34;5.03;;;3.63;;
20713;SDS011;10518;50.742;4.226;2023-04-24T05:10:59;5.73;;;3.60;;
20713;SDS011;10518;50.742;4.226;2023-04-24T05:13:25;7.50;;;3.87;;
20713;SDS011;10518;50.742;4.226;2023-04-24T05:15:51;6.90;;;3.87;;
20713;SDS011;10518;50.742;4.226;2023-04-24T05:18:17;9.83;;;4.27;;
20713;SDS011;10518;50.742;4.226;2023-04-24T05:20:43;7.27;;;3.67;;
20713;SDS011;10518;50.742;4.226;2023-04-24T05:23:09;6.97;;;3.97;;
20713;SDS011;10518;50.742;4.226;2023-04-24T05:25:34;7.20;;;3.37;;
20713;SDS011;10518;50.742;4.226;2023-04-24T05:28:01;7.90;;;4.17;;
20713;SDS011;10518;50.742;4.226;2023-04-24T05:30:27;6.13;;;3.37;;
20713;SDS011;10518;50.742;4.226;2023-04-24T05:32:53;7.20;;;3.73;;
20713;SDS011;10518;50.742;4.226;2023-04-24T05:35:18;8.87;;;4.57;;
20713;SDS011;10518;50.742;4.226;2023-04-24T05:37:44;5.20;;;3.17;;
20713;SDS011;10518;50.742;4.226;2023-04-24T05:40:10;8.83;;;4.50;;
20713;SDS011;10518;50.742;4.226;2023-04-24T05:42:36;6.20;;;3.03;;
20713;SDS011;10518;50.742;4.226;2023-04-24T05:45:01;7.00;;;3.37;;
20713;SDS011;10518;50.742;4.226;2023-04-24T05:47:27;9.40;;;3.70;;
20713;SDS011;10518;50.742;4.226;2023-04-24T05:49:53;4.80;;;3.10;;
20713;SDS011;10518;50.742;4.226;2023-04-24T05:52:19;7.93;;;3.47;;
20713;SDS011;10518;50.742;4.226;2023-04-24T05:54:45;9.03;;;3.67;;
20713;SDS011;10518;50.742;4.226;2023-04-24T05:57:11;7.07;;;3.40;;
20713;SDS011;10518;50.742;4.226;2023-04-24T05:59:37;6.43;;;3.23;;
20713;SDS011;10518;50.742;4.226;2023-04-24T06:02:05;6.37;;;3.30;;
20713;SDS011;10518;50.742;4.226;2023-04-24T06:04:32;9.33;;;3.67;;
20713;SDS011;10518;50.742;4.226;2023-04-24T06:06:58;6.33;;;3.10;;
20713;SDS011;10518;50.742;4.226;2023-04-24T06:09:24;5.57;;;3.50;;
20713;SDS011;10518;50.742;4.226;2023-04-24T06:11:50;7.10;;;4.13;;
20713;SDS011;10518;50.742;4.226;2023-04-24T06:14:18;5.63;;;3.70;;
20713;SDS011;10518;50.742;4.226;2023-04-24T06:16:44;8.50;;;3.87;;
20713;SDS011;10518;50.742;4.226;2023-04-24T06:19:10;7.23;;;4.13;;
20713;SDS011;10518;50.742;4.226;2023-04-24T06:21:35;14.30;;;4.77;;
20713;SDS011;10518;50.742;4.226;2023-04-24T06:24:01;7.83;;;4.57;;
20713;SDS011;10518;50.742;4.226;2023-04-24T06:26:28;10.13;;;3.37;;
20713;SDS011;10518;50.742;4.226;2023-04-24T06:28:54;11.23;;;4.03;;
20713;SDS011;10518;50.742;4.226;2023-04-24T06:31:20;11.67;;;5.07;;
20713;SDS011;10518;50.742;4.226;2023-04-24T06:33:46;14.73;;;5.67;;
20713;SDS011;10518;50.742;4.226;2023-04-24T06:36:12;9.87;;;4.93;;
20713;SDS011;10518;50.742;4.226;2023-04-24T06:38:38;9.70;;;5.37;;
20713;SDS011;10518;50.742;4.226;2023-04-24T06:41:04;13.93;;;6.00;;
20713;SDS011;10518;50.742;4.226;2023-04-24T06:43:30;12.90;;;5.40;;
20713;SDS011;10518;50.742;4.226;2023-04-24T06:45:57;10.07;;;5.10;;
20713;SDS011;10518;50.742;4.226;2023-04-24T06:48:23;8.90;;;5.23;;
20713;SDS011;10518;50.742;4.226;2023-04-24T06:50:50;9.33;;;4.83;;
20713;SDS011;10518;50.742;4.226;2023-04-24T06:53:15;10.97;;;5.40;;
20713;SDS011;10518;50.742;4.226;2023-04-24T06:55:41;11.93;;;4.60;;
20713;SDS011;10518;50.742;4.226;2023-04-24T06:58:08;11.27;;;5.37;;
20713;SDS011;10518;50.742;4.226;2023-04-24T07:00:34;10.73;;;4.90;;
20713;SDS011;10518;50.742;4.226;2023-04-24T07:03:00;10.77;;;5.43;;
20713;SDS011;10518;50.742;4.226;2023-04-24T07:05:25;14.57;;;4.47;;
20713;SDS011;10518;50.742;4.226;2023-04-24T07:07:51;9.10;;;5.37;;
20713;SDS011;10518;50.742;4.226;2023-04-24T07:10:17;10.10;;;5.13;;
20713;SDS011;10518;50.742;4.226;2023-04-24T07:12:43;7.17;;;4.87;;
20713;SDS011;10518;50.742;4.226;2023-04-24T07:15:09;9.70;;;4.57;;
20713;SDS011;10518;50.742;4.226;2023-04-24T07:17:35;7.47;;;4.27;;
20713;SDS011;10518;50.742;4.226;2023-04-24T07:20:03;9.20;;;5.30;;
20713;SDS011;10518;50.742;4.226;2023-04-24T07:22:29;10.10;;;5.03;;
20713;SDS011;10518;50.742;4.226;2023-04-24T07:24:55;11.23;;;4.93;;
20713;SDS011;10518;50.742;4.226;2023-04-24T07:27:20;8.97;;;5.17;;
20713;SDS011;10518;50.742;4.226;2023-04-24T07:29:46;9.43;;;5.10;;
20713;SDS011;10518;50.742;4.226;2023-04-24T07:32:12;9.67;;;5.50;;
20713;SDS011;10518;50.742;4.226;2023-04-24T07:34:37;8.73;;;4.73;;
20713;SDS011;10518;50.742;4.226;2023-04-24T07:37:03;9.73;;;4.60;;
20713;SDS011;10518;50.742;4.226;2023-04-24T07:39:29;9.70;;;5.00;;
20713;SDS011;10518;50.742;4.226;2023-04-24T07:41:54;11.90;;;4.97;;
20713;SDS011;10518;50.742;4.226;2023-04-24T07:44:20;11.17;;;5.40;;
20713;SDS011;10518;50.742;4.226;2023-04-24T07:46:45;15.40;;;5.40;;
20713;SDS011;10518;50.742;4.226;2023-04-24T07:49:12;9.80;;;4.53;;
20713;SDS011;10518;50.742;4.226;2023-04-24T07:51:37;11.47;;;4.17;;
20713;SDS011;10518;50.742;4.226;2023-04-24T07:54:04;14.37;;;6.33;;
20713;SDS011;10518;50.742;4.226;2023-04-24T07:56:33;11.30;;;5.73;;
20713;SDS011;10518;50.742;4.226;2023-04-24T07:58:59;11.17;;;4.80;;
20713;SDS011;10518;50.742;4.226;2023-04-24T08:01:26;11.07;;;4.70;;
20713;SDS011;10518;50.742;4.226;2023-04-24T08:03:52;9.00;;;4.70;;
20713;SDS011;10518;50.742;4.226;2023-04-24T08:06:17;10.77;;;4.93;;
20713;SDS011;10518;50.742;4.226;2023-04-24T08:08:43;13.00;;;5.20;;
20713;SDS011;10518;50.742;4.226;2023-04-24T08:11:09;7.10;;;4.07;;
20713;SDS011;10518;50.742;4.226;2023-04-24T08:13:34;9.60;;;4.97;;
20713;SDS011;10518;50.742;4.226;2023-04-24T08:16:00;10.50;;;3.57;;
20713;SDS011;10518;50.742;4.226;2023-04-24T08:18:26;10.57;;;5.10;;
20713;SDS011;10518;50.742;4.226;2023-04-24T08:20:51;9.10;;;4.63;;
20713;SDS011;10518;50.742;4.226;2023-04-24T08:23:17;8.63;;;4.17;;
20713;SDS011;10518;50.742;4.226;2023-04-24T08:25:42;7.90;;;4.20;;
20713;SDS011;10518;50.742;4.226;2023-04-24T08:28:08;6.97;;;4.13;;
20713;SDS011;10518;50.742;4.226;2023-04-24T08:30:35;7.80;;;3.17;;
20713;SDS011;10518;50.742;4.226;2023-04-24T08:33:00;4.63;;;3.13;;
20713;SDS011;10518;50.742;4.226;2023-04-24T08:35:26;5.53;;;3.37;;
20713;SDS011;10518;50.742;4.226;2023-04-24T08:37:52;6.80;;;4.17;;
20713;SDS011;10518;50.742;4.226;2023-04-24T08:40:18;6.63;;;3.73;;
20713;SDS011;10518;50.742;4.226;2023-04-24T08:42:50;7.40;;;4.10;;
20713;SDS011;10518;50.742;4.226;2023-04-24T08:45:20;10.57;;;3.10;;
20713;SDS011;10518;50.742;4.226;2023-04-24T08:47:46;8.87;;;3.30;;
20713;SDS011;10518;50.742;4.226;2023-04-24T08:50:12;9.43;;;3.27;;
20713;SDS011;10518;50.742;4.226;2023-04-24T08:52:38;10.97;;;3.50;;
20713;SDS011;10518;50.742;4.226;2023-04-24T08:55:04;5.43;;;2.93;;
20713;SDS011;10518;50.742;4.226;2023-04-24T08:57:30;7.77;;;3.90;;
20713;SDS011;10518;50.742;4.226;2023-04-24T08:59:57;7.57;;;3.27;;
20713;SDS011;10518;50.742;4.226;2023-04-24T09:02:23;3.93;;;2.30;;
20713;SDS011;10518;50.742;4.226;2023-04-24T09:04:50;4.03;;;2.50;;
20713;SDS011;10518;50.742;4.226;2023-04-24T09:07:17;4.57;;;2.40;;
20713;SDS011;10518;50.742;4.226;2023-04-24T09:09:44;7.80;;;2.23;;
20713;SDS011;10518;50.742;4.226;2023-04-24T09:12:10;6.33;;;2.93;;
20713;SDS011;10518;50.742;4.226;2023-04-24T09:14:37;5.40;;;2.53;;
20713;SDS011;10518;50.742;4.226;2023-04-24T09:17:07;5.37;;;2.53;;
20713;SDS011;10518;50.742;4.226;2023-04-24T09:19:33;8.43;;;3.20;;
20713;SDS011;10518;50.742;4.226;2023-04-24T09:21:58;8.93;;;3.73;;
20713;SDS011;10518;50.742;4.226;2023-04-24T09:24:24;9.93;;;4.23;;
20713;SDS011;10518;50.742;4.226;2023-04-24T09:26:59;6.07;;;2.80;;
20713;SDS011;10518;50.742;4.226;2023-04-24T09:29:26;5.17;;;2.57;;
20713;SDS011;10518;50.742;4.226;2023-04-24T09:31:52;6.67;;;3.27;;
20713;SDS011;10518;50.742;4.226;2023-04-24T09:34:21;4.03;;;2.17;;
20713;SDS011;10518;50.742;4.226;2023-04-24T09:36:49;5.00;;;2.13;;
20713;SDS011;10518;50.742;4.226;2023-04-24T09:39:15;2.50;;;1.80;;
20713;SDS011;10518;50.742;4.226;2023-04-24T09:41:45;5.23;;;2.60;;
20713;SDS011;10518;50.742;4.226;2023-04-24T09:44:17;2.27;;;1.53;;
20713;SDS011;10518;50.742;4.226;2023-04-24T09:46:53;3.80;;;2.57;;
20713;SDS011;10518;50.742;4.226;2023-04-24T09:49:27;7.13;;;2.17;;
20713;SDS011;10518;50.742;4.226;2023-04-24T09:52:03;5.70;;;3.07;;
20713;SDS011;10518;50.742;4.226;2023-04-24T09:54:33;3.07;;;2.00;;
20713;SDS011;10518;50.742;4.226;2023-04-24T09:57:01;6.77;;;1.63;;
20713;SDS011;10518;50.742;4.226;2023-04-24T09:59:27;3.43;;;1.83;;
20713;SDS011;10518;50.742;4.226;2023-04-24T10:01:53;7.13;;;2.10;;
20713;SDS011;10518;50.742;4.226;2023-04-24T10:04:19;6.13;;;2.17;;
20713;SDS011;10518;50.742;4.226;2023-04-24T10:06:49;3.43;;;2.10;;
20713;SDS011;10518;50.742;4.226;2023-04-24T10:09:20;4.30;;;1.93;;
20713;SDS011;10518;50.742;4.226;2023-04-24T10:11:51;4.67;;;2.50;;
20713;SDS011;10518;50.742;4.226;2023-04-24T10:14:27;4.73;;;2.20;;
20713;SDS011;10518;50.742;4.226;2023-04-24T10:16:54;5.07;;;2.20;;
20713;SDS011;10518;50.742;4.226;2023-04-24T10:19:24;5.50;;;3.10;;
20713;SDS011;10518;50.742;4.226;2023-04-24T10:21:51;3.50;;;2.17;;
20713;SDS011;10518;50.742;4.226;2023-04-24T10:24:19;5.83;;;2.87;;
20713;SDS011;10518;50.742;4.226;2023-04-24T10:26:48;5.85;;;2.75;;
20713;SDS011;10518;50.742;4.226;2023-04-24T10:29:14;3.85;;;2.22;;
20713;SDS011;10518;50.742;4.226;2023-04-24T10:31:44;4.47;;;2.33;;
20713;SDS011;10518;50.742;4.226;2023-04-24T10:34:13;7.17;;;1.93;;
20713;SDS011;10518;50.742;4.226;2023-04-24T10:36:42;5.60;;;3.03;;
20713;SDS011;10518;50.742;4.226;2023-04-24T10:39:12;3.87;;;2.27;;
20713;SDS011;10518;50.742;4.226;2023-04-24T10:41:40;6.83;;;3.07;;
20713;SDS011;10518;50.742;4.226;2023-04-24T10:44:06;6.27;;;2.70;;
20713;SDS011;10518;50.742;4.226;2023-04-24T10:46:32;7.90;;;3.33;;
20713;SDS011;10518;50.742;4.226;2023-04-24T10:48:58;6.80;;;2.83;;
20713;SDS011;10518;50.742;4.226;2023-04-24T10:51:50;9.53;;;3.40;;
20713;SDS011;10518;50.742;4.226;2023-04-24T10:54:27;9.43;;;3.50;;
20713;SDS011;10518;50.742;4.226;2023-04-24T10:56:53;4.53;;;2.80;;
20713;SDS011;10518;50.742;4.226;2023-04-24T10:59:39;10.03;;;3.43;;
20713;SDS011;10518;50.742;4.226;2023-04-24T11:02:06;7.73;;;3.37;;
20713;SDS011;10518;50.742;4.226;2023-04-24T11:04:33;5.07;;;2.90;;
20713;SDS011;10518;50.742;4.226;2023-04-24T11:07:00;7.10;;;3.40;;
20713;SDS011;10518;50.742;4.226;2023-04-24T11:09:26;6.70;;;3.33;;
20713;SDS011;10518;50.742;4.226;2023-04-24T11:12:02;9.10;;;3.63;;
20713;SDS011;10518;50.742;4.226;2023-04-24T11:14:29;7.93;;;3.27;;
20713;SDS011;10518;50.742;4.226;2023-04-24T11:16:55;6.13;;;3.27;;
20713;SDS011;10518;50.742;4.226;2023-04-24T11:19:22;7.50;;;3.67;;
20713;SDS011;10518;50.742;4.226;2023-04-24T11:21:58;6.27;;;3.50;;
20713;SDS011;10518;50.742;4.226;2023-04-24T11:27:15;6.97;;;3.63;;
20713;SDS011;10518;50.742;4.226;2023-04-24T11:37:42;11.50;;;3.73;;
20713;SDS011;10518;50.742;4.226;2023-04-24T11:40:13;6.00;;;3.95;;
20713;SDS011;10518;50.742;4.226;2023-04-24T11:42:41;6.60;;;3.80;;
20713;SDS011;10518;50.742;4.226;2023-04-24T11:45:09;7.82;;;3.63;;
20713;SDS011;10518;50.742;4.226;2023-04-24T11:47:38;5.85;;;3.55;;
20713;SDS011;10518;50.742;4.226;2023-04-24T11:50:05;9.70;;;3.97;;
20713;SDS011;10518;50.742;4.226;2023-04-24T11:52:33;7.38;;;4.07;;
20713;SDS011;10518;50.742;4.226;2023-04-24T11:55:02;5.78;;;3.20;;
20713;SDS011;10518;50.742;4.226;2023-04-24T11:57:29;8.25;;;3.75;;
20713;SDS011;10518;50.742;4.226;2023-04-24T12:00:02;10.57;;;4.15;;
20713;SDS011;10518;50.742;4.226;2023-04-24T12:02:30;5.43;;;3.20;;
20713;SDS011;10518;50.742;4.226;2023-04-24T12:04:55;7.03;;;3.80;;
20713;SDS011;10518;50.742;4.226;2023-04-24T12:07:22;6.32;;;3.67;;
20713;SDS011;10518;50.742;4.226;2023-04-24T12:09:58;5.93;;;3.40;;
20713;SDS011;10518;50.742;4.226;2023-04-24T12:12:27;9.40;;;4.00;;
20713;SDS011;10518;50.742;4.226;2023-04-24T12:14:54;6.72;;;3.50;;
20713;SDS011;10518;50.742;4.226;2023-04-24T12:17:41;6.35;;;3.58;;
20713;SDS011;10518;50.742;4.226;2023-04-24T12:20:07;7.93;;;3.50;;
20713;SDS011;10518;50.742;4.226;2023-04-24T12:25:12;3.90;;;2.75;;
20713;SDS011;10518;50.742;4.226;2023-04-24T12:27:43;5.35;;;3.38;;
20713;SDS011;10518;50.742;4.226;2023-04-24T12:30:15;4.60;;;2.78;;
20713;SDS011;10518;50.742;4.226;2023-04-24T12:32:45;9.37;;;3.43;;
20713;SDS011;10518;50.742;4.226;2023-04-24T12:35:12;6.23;;;3.30;;
20713;SDS011;10518;50.742;4.226;2023-04-24T12:37:41;8.70;;;3.40;;
20713;SDS011;10518;50.742;4.226;2023-04-24T12:40:09;7.20;;;3.20;;
20713;SDS011;10518;50.742;4.226;2023-04-24T12:42:35;4.77;;;2.73;;
20713;SDS011;10518;50.742;4.226;2023-04-24T12:45:07;4.97;;;2.77;;
20713;SDS011;10518;50.742;4.226;2023-04-24T12:47:33;5.57;;;3.27;;
20713;SDS011;10518;50.742;4.226;2023-04-24T12:49:59;5.07;;;2.80;;
20713;SDS011;10518;50.742;4.226;2023-04-24T12:52:27;7.45;;;3.42;;
20713;SDS011;10518;50.742;4.226;2023-04-24T12:54:54;4.65;;;2.97;;
20713;SDS011;10518;50.742;4.226;2023-04-24T12:57:22;7.70;;;3.40;;
20713;SDS011;10518;50.742;4.226;2023-04-24T12:59:48;8.90;;;3.47;;
20713;SDS011;10518;50.742;4.226;2023-04-24T13:02:14;7.17;;;3.73;;
20713;SDS011;10518;50.742;4.226;2023-04-24T13:04:43;7.78;;;3.55;;
20713;SDS011;10518;50.742;4.226;2023-04-24T13:07:11;8.33;;;3.47;;
20713;SDS011;10518;50.742;4.226;2023-04-24T13:09:37;6.23;;;2.93;;
20713;SDS011;10518;50.742;4.226;2023-04-24T13:12:03;5.38;;;3.17;;
20713;SDS011;10518;50.742;4.226;2023-04-24T13:14:30;4.65;;;2.83;;
20713;SDS011;10518;50.742;4.226;2023-04-24T13:16:56;4.57;;;2.97;;
20713;SDS011;10518;50.742;4.226;2023-04-24T13:19:23;6.03;;;2.87;;
20713;SDS011;10518;50.742;4.226;2023-04-24T13:21:50;6.00;;;3.25;;
20713;SDS011;10518;50.742;4.226;2023-04-24T13:24:16;7.97;;;3.17;;
20713;SDS011;10518;50.742;4.226;2023-04-24T13:26:42;5.45;;;2.42;;
20713;SDS011;10518;50.742;4.226;2023-04-24T13:29:08;7.63;;;3.40;;
20713;SDS011;10518;50.742;4.226;2023-04-24T13:31:34;4.35;;;2.85;;
20713;SDS011;10518;50.742;4.226;2023-04-24T13:34:00;5.43;;;2.83;;
20713;SDS011;10518;50.742;4.226;2023-04-24T13:36:27;4.55;;;2.55;;
20713;SDS011;10518;50.742;4.226;2023-04-24T13:38:52;6.00;;;2.90;;
20713;SDS011;10518;50.742;4.226;2023-04-24T13:41:18;4.60;;;2.70;;
20713;SDS011;10518;50.742;4.226;2023-04-24T13:43:44;3.78;;;2.58;;
20713;SDS011;10518;50.742;4.226;2023-04-24T13:46:09;3.47;;;2.10;;
20713;SDS011;10518;50.742;4.226;2023-04-24T13:48:35;6.93;;;2.15;;
20713;SDS011;10518;50.742;4.226;2023-04-24T13:51:01;5.75;;;2.42;;
20713;SDS011;10518;50.742;4.226;2023-04-24T13:53:26;3.70;;;2.10;;
20713;SDS011;10518;50.742;4.226;2023-04-24T13:55:52;3.40;;;2.33;;
20713;SDS011;10518;50.742;4.226;2023-04-24T13:58:18;2.47;;;1.83;;
20713;SDS011;10518;50.742;4.226;2023-04-24T14:00:44;2.75;;;2.00;;
20713;SDS011;10518;50.742;4.226;2023-04-24T14:03:09;4.43;;;1.95;;
20713;SDS011;10518;50.742;4.226;2023-04-24T14:05:35;4.07;;;1.85;;
20713;SDS011;10518;50.742;4.226;2023-04-24T14:08:01;3.05;;;1.75;;
20713;SDS011;10518;50.742;4.226;2023-04-24T14:10:27;5.43;;;2.17;;
20713;SDS011;10518;50.742;4.226;2023-04-24T14:12:53;6.65;;;2.03;;
20713;SDS011;10518;50.742;4.226;2023-04-24T14:15:18;2.88;;;1.98;;
20713;SDS011;10518;50.742;4.226;2023-04-24T14:17:44;3.35;;;2.08;;
20713;SDS011;10518;50.742;4.226;2023-04-24T14:20:11;4.68;;;2.40;;
20713;SDS011;10518;50.742;4.226;2023-04-24T14:22:37;2.67;;;1.80;;
20713;SDS011;10518;50.742;4.226;2023-04-24T14:25:04;3.07;;;1.73;;
20713;SDS011;10518;50.742;4.226;2023-04-24T14:27:31;3.47;;;1.87;;
20713;SDS011;10518;50.742;4.226;2023-04-24T14:29:57;2.63;;;1.77;;
20713;SDS011;10518;50.742;4.226;2023-04-24T14:32:23;1.85;;;1.50;;
20713;SDS011;10518;50.742;4.226;2023-04-24T14:34:48;2.97;;;1.67;;
20713;SDS011;10518;50.742;4.226;2023-04-24T14:37:14;2.25;;;1.48;;
20713;SDS011;10518;50.742;4.226;2023-04-24T14:39:40;3.90;;;1.40;;
20713;SDS011;10518;50.742;4.226;2023-04-24T14:42:06;4.97;;;1.67;;
20713;SDS011;10518;50.742;4.226;2023-04-24T14:44:31;10.93;;;1.70;;
20713;SDS011;10518;50.742;4.226;2023-04-24T14:46:58;2.75;;;1.50;;
20713;SDS011;10518;50.742;4.226;2023-04-24T14:49:23;2.17;;;1.52;;
20713;SDS011;10518;50.742;4.226;2023-04-24T14:51:49;6.18;;;1.10;;
20713;SDS011;10518;50.742;4.226;2023-04-24T14:54:15;3.92;;;1.10;;
20713;SDS011;10518;50.742;4.226;2023-04-24T14:56:40;4.60;;;1.10;;